Time;durP1;ratioP1;P1;durP2;ratioP2;P2;SDS_P1;SDS_P2;PMS_P1;PMS_P2;Temp;Humidity;BMP_temperature;BMP_pressure;BME280_temperature;BME280_humidity;BME280_pressure;Samples;Min_cycle;Max_cycle;Signal;HPM_P1;HPM_P2
2023/08/28 00:01:27;;;;;;;;;;;;;;;;;;5138382;27;852;-61
2023/08/28 00:03:53;;;;;;;;;;;;;;;;;;5157124;27;874;-61
2023/08/28 00:06:19;;;;;;;;;;;;;;;;;;5157696;27;915;-61
2023/08/28 00:08:44;;;;;;;;;;;;;;;;;;5156367;27;922;-62
2023/08/28 00:11:09;;;;;;;;;;;;;;;;;;5157613;27;947;-62
2023/08/28 00:13:35;;;;;;;;;;;;;;;;;;5156910;27;1897;-62
2023/08/28 00:16:00;;;;;;;;;;;;;;;;;;5156750;27;828;-61
2023/08/28 00:18:25;;;;;;;;;;;;;;;;;;5158027;27;824;-62
2023/08/28 00:20:51;;;;;;;;;;;;;;;;;;5156681;27;917;-62
2023/08/28 00:23:17;;;;;;;;;;;;;;;;;;5157333;27;882;-62
2023/08/28 00:25:42;;;;;;;;;;;;;;;;;;5157200;27;1204;-62
2023/08/28 00:28:07;;;;;;;;;;;;;;;;;;5138293;27;896;-61
2023/08/28 00:30:33;;;;;;;;;;;;;;;;;;5157078;27;895;-61
2023/08/28 00:32:58;;;;;;;;;;;;;;;;;;5156662;27;1905;-61
2023/08/28 00:35:23;;;;;;;;;;;;;;;;;;5156422;27;927;-62
2023/08/28 00:37:49;;;;;;;;;;;;;;;;;;5155739;27;990;-61
2023/08/28 00:40:16;;;;;;;;;;;;;;;;;;5155951;27;948;-62
2023/08/28 00:42:41;;;;;;;;;;;;;;;;;;5138138;27;826;-62
2023/08/28 00:45:07;;;;;;;;;;;;;;;;;;5155448;27;927;-62
2023/08/28 00:47:32;;;;;;;;;;;;;;;;;;5155954;27;898;-62
2023/08/28 00:49:58;;;;;;;;;;;;;;;;;;5155179;27;831;-62
2023/08/28 00:52:23;;;;;;;;;;;;;;;;;;5156247;27;935;-62
2023/08/28 00:54:49;;;;;;;;;;;;;;;;;;5155490;27;2227;-62
2023/08/28 00:57:15;;;;;;;;;;;;;;;;;;5155733;27;907;-62
2023/08/28 00:59:40;;;;;;;;;;;;;;;;;;5155516;27;923;-62
2023/08/28 01:02:06;;;;;;;;;;;;;;;;;;5154950;27;852;-62
2023/08/28 01:04:31;;;;;;;;;;;;;;;;;;5136563;27;879;-61
2023/08/28 01:06:56;;;;;;;;;;;;;;;;;;5136780;27;769;-62
2023/08/28 01:09:42;;;;;;;;;;;;;;;;;;5155199;27;919;-62
2023/08/28 01:12:10;;;;;;;;;;;;;;;;;;5136546;27;1248;-61
2023/08/28 01:14:44;;;;;;;;;;;;;;;;;;5155024;27;1902;-62
2023/08/28 01:17:11;;;;;;;;;;;;;;;;;;5154587;27;903;-62
2023/08/28 01:19:37;;;;;;;;;;;;;;;;;;5154828;27;895;-62
2023/08/28 01:22:11;;;;;;;;;;;;;;;;;;5154711;27;888;-62
2023/08/28 01:24:42;;;;;;;;;;;;;;;;;;5154557;27;922;-61
2023/08/28 01:27:08;;;;;;;;;;;;;;;;;;5154444;27;1219;-61
2023/08/28 01:29:33;;;;;;;;;;;;;;;;;;5154560;27;982;-62
2023/08/28 01:31:58;;;;;;;;;;;;;;;;;;5154103;27;891;-62
2023/08/28 01:34:23;;;;;;;;;;;;;;;;;;5154827;27;1980;-62
2023/08/28 01:36:53;;;;;;;;;;;;;;;;;;5154335;27;942;-61
2023/08/28 01:39:22;;;;;;;;;;;;;;;;;;5154444;27;1060;-62
2023/08/28 01:41:48;;;;;;;;;;;;;;;;;;5154457;27;922;-62
2023/08/28 01:44:14;;;;;;;;;;;;;;;;;;5154294;27;946;-61
2023/08/28 01:46:40;;;;;;;;;;;;;;;;;;5135671;27;1261;-62
2023/08/28 01:49:05;;;;;;;;;;;;;;;;;;5153833;27;950;-62
2023/08/28 01:51:30;;;;;;;;;;;;;;;;;;5154615;27;888;-62
2023/08/28 01:53:56;;;;;;;;;;;;;;;;;;5154271;27;1909;-61
2023/08/28 01:56:22;;;;;;;;;;;;;;;;;;5155240;27;878;-62
2023/08/28 01:58:54;;;;;;;;;;;;;;;;;;5154142;27;1197;-61
2023/08/28 02:01:20;;;;;;;;;;;;;;;;;;5155558;27;918;-61
2023/08/28 02:03:46;;;;;;;;;;;;;;;;;;5154369;27;859;-60
2023/08/28 02:06:11;;;;;;;;;;;;;;;;;;5136532;27;2472;-60
2023/08/28 02:08:37;;;;;;;;;;;;;;;;;;5155117;27;1059;-60
2023/08/28 02:11:02;;;;;;;;;;;;;;;;;;5154407;27;823;-61
2023/08/28 02:13:27;;;;;;;;;;;;;;;;;;5154079;27;2009;-61
2023/08/28 02:15:53;;;;;;;;;;;;;;;;;;5153684;27;1242;-61
2023/08/28 02:18:18;;;;;;;;;;;;;;;;;;5154453;27;868;-61
2023/08/28 02:20:44;;;;;;;;;;;;;;;;;;5153410;27;1146;-61
2023/08/28 02:23:09;;;;;;;;;;;;;;;;;;5152268;27;840;-61
2023/08/28 02:25:35;;;;;;;;;;;;;;;;;;5152748;27;891;-61
2023/08/28 02:28:00;;;;;;;;;;;;;;;;;;5153550;27;1041;-61
2023/08/28 02:30:25;;;;;;;;;;;;;;;;;;5154335;27;891;-61
2023/08/28 02:32:51;;;;;;;;;;;;;;;;;;5152919;27;986;-61
2023/08/28 02:35:16;;;;;;;;;;;;;;;;;;5154025;27;1902;-61
2023/08/28 02:37:41;;;;;;;;;;;;;;;;;;5153402;27;907;-61
2023/08/28 02:40:09;;;;;;;;;;;;;;;;;;5134512;27;1205;-60
2023/08/28 02:42:34;;;;;;;;;;;;;;;;;;5153615;27;873;-60
2023/08/28 02:44:59;;;;;;;;;;;;;;;;;;5152920;27;887;-61
2023/08/28 02:47:25;;;;;;;;;;;;;;;;;;5154012;27;974;-60
2023/08/28 02:49:50;;;;;;;;;;;;;;;;;;5152628;27;1045;-60
2023/08/28 02:52:15;;;;;;;;;;;;;;;;;;5153383;27;1235;-60
2023/08/28 02:54:40;;;;;;;;;;;;;;;;;;5153421;27;1889;-62
2023/08/28 02:57:06;;;;;;;;;;;;;;;;;;5153026;27;1055;-61
2023/08/28 02:59:31;;;;;;;;;;;;;;;;;;5153577;27;986;-61
2023/08/28 03:01:56;;;;;;;;;;;;;;;;;;5134642;27;892;-61
2023/08/28 03:04:22;;;;;;;;;;;;;;;;;;5153346;27;784;-60
2023/08/28 03:06:47;;;;;;;;;;;;;;;;;;5153272;27;896;-61
2023/08/28 03:09:12;;;;;;;;;;;;;;;;;;5134283;27;880;-61
2023/08/28 03:11:38;;;;;;;;;;;;;;;;;;5153606;27;833;-61
2023/08/28 03:14:03;;;;;;;;;;;;;;;;;;5152598;27;1941;-61
2023/08/28 03:16:29;;;;;;;;;;;;;;;;;;5153049;27;938;-61
2023/08/28 03:18:54;;;;;;;;;;;;;;;;;;5152777;27;828;-61
2023/08/28 03:21:20;;;;;;;;;;;;;;;;;;5153060;27;910;-61
2023/08/28 03:23:45;;;;;;;;;;;;;;;;;;5152820;27;883;-61
2023/08/28 03:26:11;;;;;;;;;;;;;;;;;;5152401;27;1069;-61
2023/08/28 03:28:36;;;;;;;;;;;;;;;;;;5153818;27;1038;-64
2023/08/28 03:31:01;;;;;;;;;;;;;;;;;;5153651;27;907;-61
2023/08/28 03:33:27;;;;;;;;;;;;;;;;;;5154411;27;1909;-61
2023/08/28 03:35:53;;;;;;;;;;;;;;;;;;5136948;27;1363;-61
2023/08/28 03:38:18;;;;;;;;;;;;;;;;;;5155263;27;1205;-61
2023/08/28 03:40:44;;;;;;;;;;;;;;;;;;5116845;27;1166;-61
2023/08/28 03:43:09;;;;;;;;;;;;;;;;;;5146415;27;1154;-61
2023/08/28 03:45:34;;;;;;;;;;;;;;;;;;5141169;27;1194;-62
2023/08/28 03:48:00;;;;;;;;;;;;;;;;;;5119026;27;1135;-61
2023/08/28 03:50:28;;;;;;;;;;;;;;;;;;5136556;27;820;-61
2023/08/28 03:52:54;;;;;;;;;;;;;;;;;;5135747;27;923;-61
2023/08/28 03:55:19;;;;;;;;;;;;;;;;;;5136524;27;1965;-61
2023/08/28 03:57:45;;;;;;;;;;;;;;;;;;5117588;27;919;-61
2023/08/28 04:00:14;;;;;;;;;;;;;;;;;;5136215;27;855;-61
2023/08/28 04:02:40;;;;;;;;;;;;;;;;;;5136048;27;1085;-61
2023/08/28 04:05:06;;;;;;;;;;;;;;;;;;5135431;27;876;-61
2023/08/28 04:07:32;;;;;;;;;;;;;;;;;;5136148;27;875;-61
2023/08/28 04:09:58;;;;;;;;;;;;;;;;;;5135677;27;847;-61
2023/08/28 04:12:23;;;;;;;;;;;;;;;;;;5117792;27;839;-61
2023/08/28 04:14:48;;;;;;;;;;;;;;;;;;5135647;27;1967;-60
2023/08/28 04:17:13;;;;;;;;;;;;;;;;;;5135444;27;987;-61
2023/08/28 04:19:40;;;;;;;;;;;;;;;;;;5117759;27;904;-61
2023/08/28 04:22:05;;;;;;;;;;;;;;;;;;5134885;27;903;-61
2023/08/28 04:24:30;;;;;;;;;;;;;;;;;;5135792;27;994;-61
2023/08/28 04:26:56;;;;;;;;;;;;;;;;;;5135208;27;1049;-61
2023/08/28 04:29:21;;;;;;;;;;;;;;;;;;5134973;27;1002;-61
2023/08/28 04:31:47;;;;;;;;;;;;;;;;;;5135406;27;816;-61
2023/08/28 04:34:13;;;;;;;;;;;;;;;;;;5134897;27;1933;-61
2023/08/28 04:36:38;;;;;;;;;;;;;;;;;;5135506;27;1016;-61
2023/08/28 04:39:03;;;;;;;;;;;;;;;;;;5134657;27;828;-61
2023/08/28 04:41:28;;;;;;;;;;;;;;;;;;5135421;27;971;-61
2023/08/28 04:43:54;;;;;;;;;;;;;;;;;;5134680;27;824;-60
2023/08/28 04:46:19;;;;;;;;;;;;;;;;;;5116780;27;931;-61
2023/08/28 04:48:44;;;;;;;;;;;;;;;;;;5134666;27;1042;-61
2023/08/28 04:51:09;;;;;;;;;;;;;;;;;;5133952;27;919;-60
2023/08/28 04:53:35;;;;;;;;;;;;;;;;;;5134544;27;1902;-62
2023/08/28 04:56:00;;;;;;;;;;;;;;;;;;5134641;27;852;-60
2023/08/28 04:58:25;;;;;;;;;;;;;;;;;;5134961;27;994;-61
2023/08/28 05:00:50;;;;;;;;;;;;;;;;;;5134710;27;821;-61
2023/08/28 05:03:16;;;;;;;;;;;;;;;;;;5134706;27;908;-61
2023/08/28 05:05:41;;;;;;;;;;;;;;;;;;5135405;27;913;-62
2023/08/28 05:08:06;;;;;;;;;;;;;;;;;;5134407;27;808;-61
2023/08/28 05:10:32;;;;;;;;;;;;;;;;;;5134829;27;1046;-62
2023/08/28 05:12:57;;;;;;;;;;;;;;;;;;5134296;27;1053;-62
2023/08/28 05:15:22;;;;;;;;;;;;;;;;;;5135565;27;1969;-62
2023/08/28 05:17:48;;;;;;;;;;;;;;;;;;5134861;27;1296;-61
2023/08/28 05:20:13;;;;;;;;;;;;;;;;;;5135035;27;1230;-61
2023/08/28 05:22:39;;;;;;;;;;;;;;;;;;5135609;27;928;-61
2023/08/28 05:25:04;;;;;;;;;;;;;;;;;;5134825;27;998;-61
2023/08/28 05:27:29;;;;;;;;;;;;;;;;;;5135449;27;1029;-61
2023/08/28 05:29:55;;;;;;;;;;;;;;;;;;5133975;27;813;-61
2023/08/28 05:32:20;;;;;;;;;;;;;;;;;;5134847;27;1021;-60
2023/08/28 05:34:45;;;;;;;;;;;;;;;;;;5134489;27;1905;-61
2023/08/28 05:37:11;;;;;;;;;;;;;;;;;;5133530;27;883;-61
2023/08/28 05:39:36;;;;;;;;;;;;;;;;;;5115919;27;840;-62
2023/08/28 05:42:01;;;;;;;;;;;;;;;;;;5133548;27;930;-62
2023/08/28 05:44:26;;;;;;;;;;;;;;;;;;5133983;27;971;-62
2023/08/28 05:46:52;;;;;;;;;;;;;;;;;;5133359;27;780;-62
2023/08/28 05:49:17;;;;;;;;;;;;;;;;;;5133283;27;906;-63
2023/08/28 05:51:42;;;;;;;;;;;;;;;;;;5133587;27;959;-62
2023/08/28 05:54:07;;;;;;;;;;;;;;;;;;5114645;27;1906;-61
2023/08/28 05:56:33;;;;;;;;;;;;;;;;;;5133889;27;816;-64
2023/08/28 05:58:58;;;;;;;;;;;;;;;;;;5131987;27;824;-62
2023/08/28 06:01:23;;;;;;;;;;;;;;;;;;5133767;27;1062;-62
2023/08/28 06:03:51;;;;;;;;;;;;;;;;;;5133883;27;998;-62
2023/08/28 06:06:16;;;;;;;;;;;;;;;;;;5132754;27;855;-62
2023/08/28 06:08:41;;;;;;;;;;;;;;;;;;5132904;27;975;-62
2023/08/28 06:11:06;;;;;;;;;;;;;;;;;;5132491;27;1065;-62
2023/08/28 06:13:32;;;;;;;;;;;;;;;;;;5132597;27;1894;-62
2023/08/28 06:15:57;;;;;;;;;;;;;;;;;;5132750;27;875;-62
2023/08/28 06:18:23;;;;;;;;;;;;;;;;;;5115143;27;959;-62
2023/08/28 06:20:48;;;;;;;;;;;;;;;;;;5133029;27;1022;-61
2023/08/28 06:23:14;;;;;;;;;;;;;;;;;;5132209;27;1073;-62
2023/08/28 06:25:39;;;;;;;;;;;;;;;;;;5133510;27;952;-62
2023/08/28 06:28:04;;;;;;;;;;;;;;;;;;5132311;27;859;-62
2023/08/28 06:30:29;;;;;;;;;;;;;;;;;;5132873;27;1100;-61
2023/08/28 06:32:55;;;;;;;;;;;;;;;;;;5129657;27;921;-62
2023/08/28 06:35:20;;;;;;;;;;;;;;;;;;5130779;27;2027;-62
2023/08/28 06:37:45;;;;;;;;;;;;;;;;;;5131036;27;970;-61
2023/08/28 06:40:10;;;;;;;;;;;;;;;;;;5130317;27;817;-61
2023/08/28 06:42:36;;;;;;;;;;;;;;;;;;5131096;27;975;-61
2023/08/28 06:45:01;;;;;;;;;;;;;;;;;;5129241;27;1166;-62
2023/08/28 06:47:26;;;;;;;;;;;;;;;;;;5117594;27;1177;-61
2023/08/28 06:49:52;;;;;;;;;;;;;;;;;;5129507;27;1222;-61
2023/08/28 06:52:17;;;;;;;;;;;;;;;;;;5145257;27;1138;-61
2023/08/28 06:54:42;;;;;;;;;;;;;;;;;;5154886;27;1901;-61
2023/08/28 06:57:07;;;;;;;;;;;;;;;;;;5153811;27;922;-62
2023/08/28 06:59:33;;;;;;;;;;;;;;;;;;5147346;27;1173;-62
2023/08/28 07:01:58;;;;;;;;;;;;;;;;;;5133775;27;904;-62
2023/08/28 07:04:23;;;;;;;;;;;;;;;;;;5134502;27;936;-62
2023/08/28 07:06:48;;;;;;;;;;;;;;;;;;5133553;27;903;-62
2023/08/28 07:09:14;;;;;;;;;;;;;;;;;;5114779;28;1564;-62
2023/08/28 07:11:41;;;;;;;;;;;;;;;;;;5133175;27;789;-62
2023/08/28 07:14:07;;;;;;;;;;;;;;;;;;5131809;28;1913;-62
2023/08/28 07:16:32;;;;;;;;;;;;;;;;;;5132211;28;937;-62
2023/08/28 07:18:59;;;;;;;;;;;;;;;;;;5132984;28;812;-62
2023/08/28 07:21:24;;;;;;;;;;;;;;;;;;5132697;28;827;-61
2023/08/28 07:23:51;;;;;;;;;;;;;;;;;;5132289;28;836;-62
2023/08/28 07:26:16;;;;;;;;;;;;;;;;;;5131837;28;889;-61
2023/08/28 07:28:42;;;;;;;;;;;;;;;;;;5113895;28;859;-61
2023/08/28 07:31:07;;;;;;;;;;;;;;;;;;5131667;28;887;-62
2023/08/28 07:33:32;;;;;;;;;;;;;;;;;;5132038;28;1976;-61
2023/08/28 07:35:58;;;;;;;;;;;;;;;;;;5131413;28;866;-62
2023/08/28 07:38:23;;;;;;;;;;;;;;;;;;5114006;28;930;-62
2023/08/28 07:40:49;;;;;;;;;;;;;;;;;;5132020;28;879;-62
2023/08/28 07:43:14;;;;;;;;;;;;;;;;;;5131000;28;915;-62
2023/08/28 07:45:40;;;;;;;;;;;;;;;;;;5132200;28;945;-62
2023/08/28 07:48:05;;;;;;;;;;;;;;;;;;5131532;28;848;-62
2023/08/28 07:50:31;;;;;;;;;;;;;;;;;;5132107;28;1055;-62
2023/08/28 07:52:57;;;;;;;;;;;;;;;;;;5131598;28;1034;-62
2023/08/28 07:55:22;;;;;;;;;;;;;;;;;;5132105;28;1964;-62
2023/08/28 07:57:48;;;;;;;;;;;;;;;;;;5132297;28;919;-62
2023/08/28 08:00:15;;;;;;;;;;;;;;;;;;5131883;28;840;-62
2023/08/28 08:02:41;;;;;;;;;;;;;;;;;;5131876;28;902;-62
2023/08/28 08:05:07;;;;;;;;;;;;;;;;;;5113295;28;831;-62
2023/08/28 08:07:33;;;;;;;;;;;;;;;;;;5132293;28;916;-62
2023/08/28 08:09:58;;;;;;;;;;;;;;;;;;5131737;28;832;-62
2023/08/28 08:12:23;;;;;;;;;;;;;;;;;;5130990;28;895;-62
2023/08/28 08:14:48;;;;;;;;;;;;;;;;;;5130618;28;1902;-62
2023/08/28 08:17:14;;;;;;;;;;;;;;;;;;5131297;28;891;-62
2023/08/28 08:19:39;;;;;;;;;;;;;;;;;;5131537;28;865;-62
2023/08/28 08:22:04;;;;;;;;;;;;;;;;;;5133442;27;896;-62
2023/08/28 08:24:29;;;;;;;;;;;;;;;;;;5135229;27;945;-62
2023/08/28 08:26:56;;;;;;;;;;;;;;;;;;5117589;27;840;-62
2023/08/28 08:29:22;;;;;;;;;;;;;;;;;;5134990;27;1245;-62
2023/08/28 08:31:47;;;;;;;;;;;;;;;;;;5135857;27;899;-62
2023/08/28 08:34:12;;;;;;;;;;;;;;;;;;5134794;27;1971;-62
2023/08/28 08:36:39;;;;;;;;;;;;;;;;;;5135509;27;982;-62
2023/08/28 08:39:04;;;;;;;;;;;;;;;;;;5135995;27;922;-62
2023/08/28 08:41:30;;;;;;;;;;;;;;;;;;5135686;27;860;-62
2023/08/28 08:43:55;;;;;;;;;;;;;;;;;;5136039;27;967;-62
2023/08/28 08:46:20;;;;;;;;;;;;;;;;;;5134492;27;998;-62
2023/08/28 08:48:46;;;;;;;;;;;;;;;;;;5135408;27;824;-62
2023/08/28 08:51:13;;;;;;;;;;;;;;;;;;5134512;27;986;-62
2023/08/28 08:53:43;;;;;;;;;;;;;;;;;;5116175;27;1973;-62
2023/08/28 08:56:11;;;;;;;;;;;;;;;;;;5134773;27;859;-62
2023/08/28 08:58:38;;;;;;;;;;;;;;;;;;5135413;27;823;-62
2023/08/28 09:01:04;;;;;;;;;;;;;;;;;;5133899;27;887;-62
2023/08/28 09:03:29;;;;;;;;;;;;;;;;;;5134529;27;828;-62
2023/08/28 09:05:55;;;;;;;;;;;;;;;;;;5116688;27;1124;-62
2023/08/28 09:08:23;;;;;;;;;;;;;;;;;;5134168;27;902;-62
2023/08/28 09:10:48;;;;;;;;;;;;;;;;;;5116144;27;1301;-62
2023/08/28 09:13:13;;;;;;;;;;;;;;;;;;5133914;27;901;-62
2023/08/28 09:15:39;;;;;;;;;;;;;;;;;;5135241;27;1902;-62
2023/08/28 09:18:05;;;;;;;;;;;;;;;;;;5134462;27;895;-62
2023/08/28 09:20:30;;;;;;;;;;;;;;;;;;5135259;27;883;-62
2023/08/28 09:22:56;;;;;;;;;;;;;;;;;;5099367;27;1169;-62
2023/08/28 09:25:22;;;;;;;;;;;;;;;;;;5135112;27;876;-62
2023/08/28 09:27:48;;;;;;;;;;;;;;;;;;5134716;27;835;-62
2023/08/28 09:30:32;;;;;;;;;;;;;;;;;;5133847;27;815;-62
2023/08/28 09:32:59;;;;;;;;;;;;;;;;;;5133809;27;851;-62
2023/08/28 09:35:28;;;;;;;;;;;;;;;;;;5115403;27;1910;-62
2023/08/28 09:37:54;;;;;;;;;;;;;;;;;;5134398;27;899;-61
2023/08/28 09:40:33;;;;;;;;;;;;;;;;;;5115107;27;1519;-61
2023/08/28 09:42:59;;;;;;;;;;;;;;;;;;5115383;27;1026;-61
2023/08/28 09:45:31;;;;;;;;;;;;;;;;;;5133182;27;927;-61
2023/08/28 09:47:56;;;;;;;;;;;;;;;;;;5133395;27;1197;-62
2023/08/28 09:50:22;;;;;;;;;;;;;;;;;;5133372;27;934;-62
2023/08/28 09:52:47;;;;;;;;;;;;;;;;;;5133829;27;974;-62
2023/08/28 09:55:13;;;;;;;;;;;;;;;;;;5133578;27;1952;-62
2023/08/28 09:57:42;;;;;;;;;;;;;;;;;;5133689;27;900;-62
2023/08/28 10:00:08;;;;;;;;;;;;;;;;;;5133130;27;954;-62
2023/08/28 10:02:33;;;;;;;;;;;;;;;;;;5133384;27;830;-62
2023/08/28 10:04:59;;;;;;;;;;;;;;;;;;5133560;27;883;-62
2023/08/28 10:07:25;;;;;;;;;;;;;;;;;;5133643;27;832;-62
2023/08/28 10:09:51;;;;;;;;;;;;;;;;;;5133616;27;816;-62
2023/08/28 10:12:16;;;;;;;;;;;;;;;;;;5133285;27;820;-62
2023/08/28 10:14:42;;;;;;;;;;;;;;;;;;5133157;27;1955;-62
2023/08/28 10:17:09;;;;;;;;;;;;;;;;;;5133441;27;934;-62
2023/08/28 10:19:48;;;;;;;;;;;;;;;;;;5133648;27;991;-62
2023/08/28 10:22:14;;;;;;;;;;;;;;;;;;5133598;27;816;-62
2023/08/28 10:24:41;;;;;;;;;;;;;;;;;;5133361;27;990;-62
2023/08/28 10:27:07;;;;;;;;;;;;;;;;;;5132492;27;820;-62
2023/08/28 10:29:33;;;;;;;;;;;;;;;;;;5133240;27;1006;-62
2023/08/28 10:31:59;;;;;;;;;;;;;;;;;;5133445;27;800;-62
2023/08/28 10:34:25;;;;;;;;;;;;;;;;;;5144820;27;1911;-62
2023/08/28 10:36:51;;;;;;;;;;;;;;;;;;5152930;27;923;-62
2023/08/28 10:39:17;;;;;;;;;;;;;;;;;;5152826;27;994;-62
2023/08/28 10:41:43;;;;;;;;;;;;;;;;;;5153231;27;859;-62
2023/08/28 10:44:09;;;;;;;;;;;;;;;;;;5152542;27;886;-62
2023/08/28 10:46:34;;;;;;;;;;;;;;;;;;5153795;27;922;-62
2023/08/28 10:49:03;;;;;;;;;;;;;;;;;;5153442;27;910;-62
2023/08/28 10:51:31;;;;;;;;;;;;;;;;;;5153215;27;863;-62
2023/08/28 10:53:58;;;;;;;;;;;;;;;;;;5153308;27;1964;-62
2023/08/28 10:56:23;;;;;;;;;;;;;;;;;;5155144;27;890;-62
2023/08/28 10:58:49;;;;;;;;;;;;;;;;;;5154751;27;851;-62
2023/08/28 11:01:15;;;;;;;;;;;;;;;;;;5153947;27;981;-62
2023/08/28 11:03:57;;;;;;;;;;;;;;;;;;5154512;27;808;-62
2023/08/28 11:06:44;;;;;;;;;;;;;;;;;;5154368;27;823;-62
2023/08/28 11:09:28;;;;;;;;;;;;;;;;;;5153833;27;934;-62
2023/08/28 11:12:03;;;;;;;;;;;;;;;;;;5153563;27;1259;-62
2023/08/28 11:14:32;;;;;;;;;;;;;;;;;;5152520;27;1898;-62
2023/08/28 11:17:24;;;;;;;;;;;;;;;;;;5153332;27;962;-63
2023/08/28 11:20:01;;;;;;;;;;;;;;;;;;5147982;27;1371;-62
2023/08/28 11:22:33;;;;;;;;;;;;;;;;;;5153403;27;963;-62
2023/08/28 11:24:59;;;;;;;;;;;;;;;;;;5153539;27;905;-62
2023/08/28 11:27:40;;;;;;;;;;;;;;;;;;5152681;27;879;-62
2023/08/28 11:30:07;;;;;;;;;;;;;;;;;;5134143;27;1177;-62
2023/08/28 11:32:33;;;;;;;;;;;;;;;;;;5153289;27;930;-63
2023/08/28 11:35:06;;;;;;;;;;;;;;;;;;5153105;27;1901;-63
2023/08/28 11:37:32;;;;;;;;;;;;;;;;;;5152963;27;839;-62
2023/08/28 11:39:59;;;;;;;;;;;;;;;;;;5135066;27;1375;-62
2023/08/28 11:42:25;;;;;;;;;;;;;;;;;;5153051;27;808;-63
2023/08/28 11:44:51;;;;;;;;;;;;;;;;;;5134790;27;1295;-62
2023/08/28 11:47:22;;;;;;;;;;;;;;;;;;5152571;27;873;-62
2023/08/28 11:49:47;;;;;;;;;;;;;;;;;;5152353;27;1193;-62
2023/08/28 11:52:16;;;;;;;;;;;;;;;;;;5151818;27;935;-62
2023/08/28 11:54:41;;;;;;;;;;;;;;;;;;5151578;27;1897;-62
2023/08/28 11:57:07;;;;;;;;;;;;;;;;;;5155253;27;860;-63
2023/08/28 11:59:33;;;;;;;;;;;;;;;;;;5157619;27;879;-62
2023/08/28 12:01:59;;;;;;;;;;;;;;;;;;5157184;27;978;-62
2023/08/28 12:04:24;;;;;;;;;;;;;;;;;;5157506;27;954;-62
2023/08/28 12:06:49;;;;;;;;;;;;;;;;;;5156366;27;906;-63
2023/08/28 12:09:15;;;;;;;;;;;;;;;;;;5155200;27;887;-62
2023/08/28 12:11:41;;;;;;;;;;;;;;;;;;5155185;27;884;-63
2023/08/28 12:14:25;;;;;;;;;;;;;;;;;;5153856;27;1970;-63
2023/08/28 12:16:57;;;;;;;;;;;;;;;;;;5154039;27;875;-63
2023/08/28 12:19:23;;;;;;;;;;;;;;;;;;5154478;27;969;-62
2023/08/28 12:21:48;;;;;;;;;;;;;;;;;;5154470;27;967;-63
2023/08/28 12:24:13;;;;;;;;;;;;;;;;;;5154746;27;898;-62
2023/08/28 12:26:43;;;;;;;;;;;;;;;;;;5157004;27;845;-63
2023/08/28 12:29:08;;;;;;;;;;;;;;;;;;5156071;27;998;-63
2023/08/28 12:31:34;;;;;;;;;;;;;;;;;;5156314;27;841;-63
2023/08/28 12:34:06;;;;;;;;;;;;;;;;;;5156128;27;1901;-63
2023/08/28 12:36:35;;;;;;;;;;;;;;;;;;5156149;27;828;-63
2023/08/28 12:39:01;;;;;;;;;;;;;;;;;;5156600;27;844;-63
2023/08/28 12:41:26;;;;;;;;;;;;;;;;;;5157056;27;1017;-63
2023/08/28 12:43:51;;;;;;;;;;;;;;;;;;5156327;27;890;-63
2023/08/28 12:46:16;;;;;;;;;;;;;;;;;;5137132;27;1146;-63
2023/08/28 12:48:43;;;;;;;;;;;;;;;;;;5156933;27;855;-63
2023/08/28 12:51:08;;;;;;;;;;;;;;;;;;5155775;27;1001;-63
2023/08/28 12:53:34;;;;;;;;;;;;;;;;;;5156266;27;1898;-63
2023/08/28 12:55:59;;;;;;;;;;;;;;;;;;5137857;27;919;-63
2023/08/28 12:58:24;;;;;;;;;;;;;;;;;;5137052;27;1067;-63
2023/08/28 13:00:49;;;;;;;;;;;;;;;;;;5155972;27;1025;-63
2023/08/28 13:03:15;;;;;;;;;;;;;;;;;;5155185;27;890;-63
2023/08/28 13:05:41;;;;;;;;;;;;;;;;;;5155144;27;926;-63
2023/08/28 13:08:06;;;;;;;;;;;;;;;;;;5154103;27;917;-63
2023/08/28 13:10:32;;;;;;;;;;;;;;;;;;5155229;27;990;-62
2023/08/28 13:12:57;;;;;;;;;;;;;;;;;;5136579;27;1012;-62
2023/08/28 13:15:23;;;;;;;;;;;;;;;;;;5154478;27;1909;-63
2023/08/28 13:17:48;;;;;;;;;;;;;;;;;;5136694;27;978;-63
2023/08/28 13:20:14;;;;;;;;;;;;;;;;;;5135844;27;888;-62
2023/08/28 13:22:40;;;;;;;;;;;;;;;;;;5154917;27;828;-63
2023/08/28 13:25:05;;;;;;;;;;;;;;;;;;5154949;27;903;-63
2023/08/28 13:27:30;;;;;;;;;;;;;;;;;;5155302;27;839;-63
2023/08/28 13:29:56;;;;;;;;;;;;;;;;;;5155047;27;824;-63
2023/08/28 13:32:22;;;;;;;;;;;;;;;;;;5154870;27;835;-63
2023/08/28 13:34:47;;;;;;;;;;;;;;;;;;5154947;27;1910;-63
2023/08/28 13:37:12;;;;;;;;;;;;;;;;;;5154583;27;836;-63
2023/08/28 13:39:38;;;;;;;;;;;;;;;;;;5136393;27;923;-63
2023/08/28 13:42:04;;;;;;;;;;;;;;;;;;5154236;27;1069;-63
2023/08/28 13:44:29;;;;;;;;;;;;;;;;;;5154509;27;986;-63
2023/08/28 13:46:55;;;;;;;;;;;;;;;;;;5154683;27;833;-63
2023/08/28 13:49:21;;;;;;;;;;;;;;;;;;5135916;27;1719;-63
2023/08/28 13:51:49;;;;;;;;;;;;;;;;;;5155065;27;1004;-63
2023/08/28 13:54:15;;;;;;;;;;;;;;;;;;5154202;27;1970;-63
2023/08/28 13:56:40;;;;;;;;;;;;;;;;;;5154422;27;867;-63
2023/08/28 13:59:05;;;;;;;;;;;;;;;;;;5153997;27;816;-63
2023/08/28 14:01:30;;;;;;;;;;;;;;;;;;5153966;27;789;-63
2023/08/28 14:03:56;;;;;;;;;;;;;;;;;;5154128;27;899;-63
2023/08/28 14:06:21;;;;;;;;;;;;;;;;;;5153202;27;875;-64
2023/08/28 14:08:47;;;;;;;;;;;;;;;;;;5154022;27;911;-65
2023/08/28 14:11:12;;;;;;;;;;;;;;;;;;5151171;27;1371;-64
2023/08/28 14:13:37;;;;;;;;;;;;;;;;;;5129541;27;1975;-64
2023/08/28 14:16:06;;;;;;;;;;;;;;;;;;5155254;27;911;-62
2023/08/28 14:18:32;;;;;;;;;;;;;;;;;;5136817;27;1287;-66
2023/08/28 14:20:57;;;;;;;;;;;;;;;;;;5137388;27;907;-67
2023/08/28 14:23:22;;;;;;;;;;;;;;;;;;5120243;27;1820;-66
2023/08/28 14:25:48;;;;;;;;;;;;;;;;;;5156085;27;906;-65
2023/08/28 14:28:14;;;;;;;;;;;;;;;;;;5155074;27;832;-66
2023/08/28 14:30:39;;;;;;;;;;;;;;;;;;5154982;27;910;-63
2023/08/28 14:33:05;;;;;;;;;;;;;;;;;;5154525;27;883;-63
2023/08/28 14:35:30;;;;;;;;;;;;;;;;;;5154856;27;1941;-64
2023/08/28 14:37:55;;;;;;;;;;;;;;;;;;5136294;27;1062;-63
2023/08/28 14:40:21;;;;;;;;;;;;;;;;;;5135860;27;844;-63
2023/08/28 14:42:46;;;;;;;;;;;;;;;;;;5135889;27;1169;-63
2023/08/28 14:45:12;;;;;;;;;;;;;;;;;;5153770;27;813;-64
2023/08/28 14:47:37;;;;;;;;;;;;;;;;;;5154865;27;923;-67
2023/08/28 14:50:03;;;;;;;;;;;;;;;;;;5135624;27;1006;-65
2023/08/28 14:52:28;;;;;;;;;;;;;;;;;;5155040;27;757;-62
2023/08/28 14:54:53;;;;;;;;;;;;;;;;;;5154152;27;1964;-65
2023/08/28 14:57:20;;;;;;;;;;;;;;;;;;5154009;27;867;-66
2023/08/28 14:59:45;;;;;;;;;;;;;;;;;;5154635;27;821;-66
2023/08/28 15:02:12;;;;;;;;;;;;;;;;;;5154359;27;792;-65
2023/08/28 15:04:38;;;;;;;;;;;;;;;;;;5154331;27;840;-65
2023/08/28 15:07:03;;;;;;;;;;;;;;;;;;5154492;27;1022;-65
2023/08/28 15:09:28;;;;;;;;;;;;;;;;;;5154310;27;824;-62
2023/08/28 15:11:59;;;;;;;;;;;;;;;;;;5135681;27;896;-63
2023/08/28 15:14:24;;;;;;;;;;;;;;;;;;5153941;27;1906;-63
2023/08/28 15:16:49;;;;;;;;;;;;;;;;;;5154729;27;808;-63
2023/08/28 15:19:14;;;;;;;;;;;;;;;;;;5154410;27;836;-63
2023/08/28 15:21:40;;;;;;;;;;;;;;;;;;5136112;27;832;-63
2023/08/28 15:24:05;;;;;;;;;;;;;;;;;;5153457;27;962;-63
2023/08/28 15:26:31;;;;;;;;;;;;;;;;;;5154565;27;1092;-63
2023/08/28 15:28:56;;;;;;;;;;;;;;;;;;5136174;27;1611;-64
2023/08/28 15:31:22;;;;;;;;;;;;;;;;;;5156886;27;816;-65
2023/08/28 15:33:47;;;;;;;;;;;;;;;;;;5158379;27;1906;-68
2023/08/28 15:36:12;;;;;;;;;;;;;;;;;;5157615;27;934;-66
2023/08/28 15:38:37;;;;;;;;;;;;;;;;;;5158518;27;962;-65
2023/08/28 15:41:03;;;;;;;;;;;;;;;;;;5139788;27;871;-66
2023/08/28 15:43:28;;;;;;;;;;;;;;;;;;5157960;27;908;-65
2023/08/28 15:45:54;;;;;;;;;;;;;;;;;;5157678;27;868;-66
2023/08/28 15:48:19;;;;;;;;;;;;;;;;;;5157474;27;946;-66
2023/08/28 15:50:45;;;;;;;;;;;;;;;;;;5157477;27;860;-68
2023/08/28 15:53:10;;;;;;;;;;;;;;;;;;5156883;27;903;-66
2023/08/28 15:55:35;;;;;;;;;;;;;;;;;;5157217;27;1910;-65
2023/08/28 15:58:01;;;;;;;;;;;;;;;;;;5156533;27;979;-63
2023/08/28 16:00:26;;;;;;;;;;;;;;;;;;5139210;27;852;-64
2023/08/28 16:02:51;;;;;;;;;;;;;;;;;;5156856;27;974;-65
2023/08/28 16:05:16;;;;;;;;;;;;;;;;;;5157102;27;971;-61
2023/08/28 16:07:42;;;;;;;;;;;;;;;;;;5156409;27;990;-61
2023/08/28 16:10:09;;;;;;;;;;;;;;;;;;5156000;27;816;-62
2023/08/28 16:12:34;;;;;;;;;;;;;;;;;;5156458;27;871;-60
2023/08/28 16:14:59;;;;;;;;;;;;;;;;;;5155616;27;1906;-63
2023/08/28 16:17:25;;;;;;;;;;;;;;;;;;5155891;27;1014;-63
2023/08/28 16:19:50;;;;;;;;;;;;;;;;;;5156428;27;879;-60
2023/08/28 16:22:16;;;;;;;;;;;;;;;;;;5155997;27;836;-63
2023/08/28 16:24:41;;;;;;;;;;;;;;;;;;5137774;27;1368;-63
2023/08/28 16:27:06;;;;;;;;;;;;;;;;;;5155566;27;855;-62
2023/08/28 16:29:32;;;;;;;;;;;;;;;;;;5156723;27;873;-60
2023/08/28 16:31:57;;;;;;;;;;;;;;;;;;5137712;27;848;-63
2023/08/28 16:34:23;;;;;;;;;;;;;;;;;;5137343;27;1980;-63
2023/08/28 16:36:49;;;;;;;;;;;;;;;;;;5156199;27;902;-63
2023/08/28 16:39:15;;;;;;;;;;;;;;;;;;5155153;27;928;-62
2023/08/28 16:41:40;;;;;;;;;;;;;;;;;;5155498;27;939;-62
2023/08/28 16:44:07;;;;;;;;;;;;;;;;;;5155812;27;852;-62
2023/08/28 16:46:32;;;;;;;;;;;;;;;;;;5156102;27;827;-61
2023/08/28 16:48:57;;;;;;;;;;;;;;;;;;5155961;27;895;-61
2023/08/28 16:51:23;;;;;;;;;;;;;;;;;;5155910;27;855;-61
2023/08/28 16:53:48;;;;;;;;;;;;;;;;;;5156075;27;1949;-62
2023/08/28 16:56:13;;;;;;;;;;;;;;;;;;5155770;27;589;-62
2023/08/28 16:58:38;;;;;;;;;;;;;;;;;;5156226;27;824;-62
2023/08/28 17:01:04;;;;;;;;;;;;;;;;;;5139035;27;1264;-62
2023/08/28 17:03:30;;;;;;;;;;;;;;;;;;5147847;27;1162;-62
2023/08/28 17:05:56;;;;;;;;;;;;;;;;;;5140349;27;1159;-61
2023/08/28 17:08:22;;;;;;;;;;;;;;;;;;5133967;27;1149;-63